sensor_id;sensor_type;location;lat;lon;timestamp;P1;durP1;ratioP1;P2;durP2;ratioP2
6388;SDS011;3227;42.654;23.360;2023-08-01T00:00:26;4.22;;;2.45;;
6388;SDS011;3227;42.654;23.360;2023-08-01T00:02:52;4.93;;;2.42;;
6388;SDS011;3227;42.654;23.360;2023-08-01T00:05:20;4.57;;;2.50;;
6388;SDS011;3227;42.654;23.360;2023-08-01T00:07:46;3.92;;;2.25;;
6388;SDS011;3227;42.654;23.360;2023-08-01T00:10:16;5.63;;;2.30;;
6388;SDS011;3227;42.654;23.360;2023-08-01T00:12:43;6.13;;;2.40;;
6388;SDS011;3227;42.654;23.360;2023-08-01T00:15:09;4.13;;;2.30;;
6388;SDS011;3227;42.654;23.360;2023-08-01T00:17:37;5.15;;;2.65;;
6388;SDS011;3227;42.654;23.360;2023-08-01T00:20:04;5.13;;;2.30;;
6388;SDS011;3227;42.654;23.360;2023-08-01T00:22:31;5.43;;;2.35;;
6388;SDS011;3227;42.654;23.360;2023-08-01T00:24:58;5.15;;;2.60;;
6388;SDS011;3227;42.654;23.360;2023-08-01T00:27:26;4.07;;;2.25;;
6388;SDS011;3227;42.654;23.360;2023-08-01T00:29:54;4.38;;;2.63;;
6388;SDS011;3227;42.654;23.360;2023-08-01T00:32:20;6.50;;;2.60;;
6388;SDS011;3227;42.654;23.360;2023-08-01T00:34:49;4.80;;;2.40;;
6388;SDS011;3227;42.654;23.360;2023-08-01T00:37:16;5.07;;;2.58;;
6388;SDS011;3227;42.654;23.360;2023-08-01T00:39:43;5.90;;;2.63;;
6388;SDS011;3227;42.654;23.360;2023-08-01T00:42:10;3.10;;;1.98;;
6388;SDS011;3227;42.654;23.360;2023-08-01T00:44:38;4.75;;;2.53;;
6388;SDS011;3227;42.654;23.360;2023-08-01T00:47:04;4.60;;;2.40;;
6388;SDS011;3227;42.654;23.360;2023-08-01T00:49:32;5.38;;;2.72;;
6388;SDS011;3227;42.654;23.360;2023-08-01T00:51:58;3.97;;;2.28;;
6388;SDS011;3227;42.654;23.360;2023-08-01T00:54:25;3.75;;;2.17;;
6388;SDS011;3227;42.654;23.360;2023-08-01T00:56:52;6.95;;;2.92;;
6388;SDS011;3227;42.654;23.360;2023-08-01T00:59:19;6.53;;;2.50;;
6388;SDS011;3227;42.654;23.360;2023-08-01T01:01:47;5.88;;;2.42;;
6388;SDS011;3227;42.654;23.360;2023-08-01T01:04:14;8.23;;;2.42;;
6388;SDS011;3227;42.654;23.360;2023-08-01T01:06:43;4.65;;;2.42;;
6388;SDS011;3227;42.654;23.360;2023-08-01T01:09:14;4.57;;;2.40;;
6388;SDS011;3227;42.654;23.360;2023-08-01T01:11:42;4.57;;;2.70;;
6388;SDS011;3227;42.654;23.360;2023-08-01T01:14:09;5.22;;;2.50;;
6388;SDS011;3227;42.654;23.360;2023-08-01T01:16:36;6.30;;;2.88;;
6388;SDS011;3227;42.654;23.360;2023-08-01T01:19:05;4.95;;;2.70;;
6388;SDS011;3227;42.654;23.360;2023-08-01T01:21:34;8.10;;;2.65;;
6388;SDS011;3227;42.654;23.360;2023-08-01T01:24:02;4.63;;;2.50;;
6388;SDS011;3227;42.654;23.360;2023-08-01T01:26:30;3.83;;;2.25;;
6388;SDS011;3227;42.654;23.360;2023-08-01T01:28:58;4.88;;;2.40;;
6388;SDS011;3227;42.654;23.360;2023-08-01T01:31:26;5.03;;;2.75;;
6388;SDS011;3227;42.654;23.360;2023-08-01T01:33:53;4.35;;;2.40;;
6388;SDS011;3227;42.654;23.360;2023-08-01T01:36:21;6.95;;;2.50;;
6388;SDS011;3227;42.654;23.360;2023-08-01T01:38:49;4.50;;;2.60;;
6388;SDS011;3227;42.654;23.360;2023-08-01T01:41:16;4.13;;;2.55;;
6388;SDS011;3227;42.654;23.360;2023-08-01T01:43:42;6.00;;;2.70;;
6388;SDS011;3227;42.654;23.360;2023-08-01T01:46:10;5.13;;;2.83;;
6388;SDS011;3227;42.654;23.360;2023-08-01T01:48:36;4.45;;;2.60;;
6388;SDS011;3227;42.654;23.360;2023-08-01T01:51:03;5.72;;;2.70;;
6388;SDS011;3227;42.654;23.360;2023-08-01T01:53:30;7.20;;;2.83;;
6388;SDS011;3227;42.654;23.360;2023-08-01T01:55:58;6.57;;;2.60;;
6388;SDS011;3227;42.654;23.360;2023-08-01T01:58:25;6.97;;;2.60;;
6388;SDS011;3227;42.654;23.360;2023-08-01T02:00:51;6.63;;;2.47;;
6388;SDS011;3227;42.654;23.360;2023-08-01T02:03:18;5.38;;;2.70;;
6388;SDS011;3227;42.654;23.360;2023-08-01T02:05:45;6.05;;;2.63;;
6388;SDS011;3227;42.654;23.360;2023-08-01T02:08:12;5.13;;;2.70;;
6388;SDS011;3227;42.654;23.360;2023-08-01T02:10:38;4.75;;;2.53;;
6388;SDS011;3227;42.654;23.360;2023-08-01T02:13:06;6.60;;;2.65;;
6388;SDS011;3227;42.654;23.360;2023-08-01T02:15:34;5.00;;;2.60;;
6388;SDS011;3227;42.654;23.360;2023-08-01T02:18:00;6.93;;;2.75;;
6388;SDS011;3227;42.654;23.360;2023-08-01T02:20:27;6.53;;;2.60;;
6388;SDS011;3227;42.654;23.360;2023-08-01T02:22:54;5.28;;;2.80;;
6388;SDS011;3227;42.654;23.360;2023-08-01T02:25:21;7.28;;;2.70;;
6388;SDS011;3227;42.654;23.360;2023-08-01T02:27:48;5.05;;;3.10;;
6388;SDS011;3227;42.654;23.360;2023-08-01T02:30:16;7.13;;;3.20;;
6388;SDS011;3227;42.654;23.360;2023-08-01T02:32:43;8.15;;;3.88;;
6388;SDS011;3227;42.654;23.360;2023-08-01T02:35:09;6.78;;;3.58;;
6388;SDS011;3227;42.654;23.360;2023-08-01T02:37:36;8.63;;;3.72;;
6388;SDS011;3227;42.654;23.360;2023-08-01T02:40:04;6.25;;;4.00;;
6388;SDS011;3227;42.654;23.360;2023-08-01T02:42:34;8.18;;;4.25;;
6388;SDS011;3227;42.654;23.360;2023-08-01T02:45:01;9.20;;;4.93;;
6388;SDS011;3227;42.654;23.360;2023-08-01T02:47:29;7.40;;;4.50;;
6388;SDS011;3227;42.654;23.360;2023-08-01T02:49:56;13.07;;;4.85;;
6388;SDS011;3227;42.654;23.360;2023-08-01T02:52:22;10.68;;;5.13;;
6388;SDS011;3227;42.654;23.360;2023-08-01T02:54:49;9.10;;;5.65;;
6388;SDS011;3227;42.654;23.360;2023-08-01T02:57:16;8.55;;;4.80;;
6388;SDS011;3227;42.654;23.360;2023-08-01T02:59:43;10.20;;;4.78;;
6388;SDS011;3227;42.654;23.360;2023-08-01T03:02:09;7.00;;;4.68;;
6388;SDS011;3227;42.654;23.360;2023-08-01T03:04:37;9.13;;;4.60;;
6388;SDS011;3227;42.654;23.360;2023-08-01T03:07:04;8.77;;;4.32;;
6388;SDS011;3227;42.654;23.360;2023-08-01T03:09:31;7.88;;;4.20;;
6388;SDS011;3227;42.654;23.360;2023-08-01T03:11:58;11.13;;;4.85;;
6388;SDS011;3227;42.654;23.360;2023-08-01T03:14:25;8.40;;;4.72;;
6388;SDS011;3227;42.654;23.360;2023-08-01T03:16:52;8.40;;;4.88;;
6388;SDS011;3227;42.654;23.360;2023-08-01T03:19:18;10.20;;;5.20;;
6388;SDS011;3227;42.654;23.360;2023-08-01T03:21:46;8.00;;;4.95;;
6388;SDS011;3227;42.654;23.360;2023-08-01T03:24:13;9.88;;;5.18;;
6388;SDS011;3227;42.654;23.360;2023-08-01T03:26:45;8.13;;;4.72;;
6388;SDS011;3227;42.654;23.360;2023-08-01T03:29:12;8.05;;;4.65;;
6388;SDS011;3227;42.654;23.360;2023-08-01T03:31:38;8.10;;;4.03;;
6388;SDS011;3227;42.654;23.360;2023-08-01T03:34:05;8.23;;;4.43;;
6388;SDS011;3227;42.654;23.360;2023-08-01T03:36:34;10.50;;;5.05;;
6388;SDS011;3227;42.654;23.360;2023-08-01T03:39:02;9.18;;;5.70;;
6388;SDS011;3227;42.654;23.360;2023-08-01T03:41:29;9.65;;;5.72;;
6388;SDS011;3227;42.654;23.360;2023-08-01T03:43:57;7.90;;;5.38;;
6388;SDS011;3227;42.654;23.360;2023-08-01T03:46:24;10.00;;;5.63;;
6388;SDS011;3227;42.654;23.360;2023-08-01T03:48:51;8.32;;;5.78;;
6388;SDS011;3227;42.654;23.360;2023-08-01T03:51:17;8.57;;;5.75;;
6388;SDS011;3227;42.654;23.360;2023-08-01T03:53:45;9.77;;;5.20;;
6388;SDS011;3227;42.654;23.360;2023-08-01T03:56:14;9.63;;;5.60;;
6388;SDS011;3227;42.654;23.360;2023-08-01T03:58:41;9.65;;;5.50;;
6388;SDS011;3227;42.654;23.360;2023-08-01T04:01:07;8.48;;;5.45;;
6388;SDS011;3227;42.654;23.360;2023-08-01T04:03:34;8.48;;;5.55;;
6388;SDS011;3227;42.654;23.360;2023-08-01T04:06:01;9.05;;;4.90;;
6388;SDS011;3227;42.654;23.360;2023-08-01T04:08:28;12.18;;;5.53;;
6388;SDS011;3227;42.654;23.360;2023-08-01T04:10:55;7.50;;;4.53;;
6388;SDS011;3227;42.654;23.360;2023-08-01T04:13:23;8.43;;;4.80;;
6388;SDS011;3227;42.654;23.360;2023-08-01T04:15:49;8.45;;;5.47;;
6388;SDS011;3227;42.654;23.360;2023-08-01T04:18:16;7.70;;;4.32;;
6388;SDS011;3227;42.654;23.360;2023-08-01T04:20:43;7.63;;;4.93;;
6388;SDS011;3227;42.654;23.360;2023-08-01T04:23:10;8.77;;;5.20;;
6388;SDS011;3227;42.654;23.360;2023-08-01T04:25:41;7.50;;;4.85;;
6388;SDS011;3227;42.654;23.360;2023-08-01T04:28:08;8.70;;;5.47;;
6388;SDS011;3227;42.654;23.360;2023-08-01T04:30:35;8.80;;;5.25;;
6388;SDS011;3227;42.654;23.360;2023-08-01T04:33:03;7.68;;;5.57;;
6388;SDS011;3227;42.654;23.360;2023-08-01T04:35:30;8.63;;;5.13;;
6388;SDS011;3227;42.654;23.360;2023-08-01T04:37:57;7.70;;;4.78;;
6388;SDS011;3227;42.654;23.360;2023-08-01T04:40:23;13.48;;;5.15;;
6388;SDS011;3227;42.654;23.360;2023-08-01T04:42:50;7.95;;;5.10;;
6388;SDS011;3227;42.654;23.360;2023-08-01T04:45:17;13.57;;;5.38;;
6388;SDS011;3227;42.654;23.360;2023-08-01T04:47:45;8.65;;;5.30;;
6388;SDS011;3227;42.654;23.360;2023-08-01T04:50:12;10.25;;;5.30;;
6388;SDS011;3227;42.654;23.360;2023-08-01T04:52:38;10.43;;;5.32;;
6388;SDS011;3227;42.654;23.360;2023-08-01T04:55:06;9.13;;;5.20;;
6388;SDS011;3227;42.654;23.360;2023-08-01T04:57:33;10.38;;;5.00;;
6388;SDS011;3227;42.654;23.360;2023-08-01T05:00:00;19.33;;;8.73;;
6388;SDS011;3227;42.654;23.360;2023-08-01T05:02:27;12.98;;;6.53;;
6388;SDS011;3227;42.654;23.360;2023-08-01T05:05:10;9.38;;;4.40;;
6388;SDS011;3227;42.654;23.360;2023-08-01T05:07:36;8.23;;;4.10;;
6388;SDS011;3227;42.654;23.360;2023-08-01T05:10:03;8.90;;;3.90;;
6388;SDS011;3227;42.654;23.360;2023-08-01T05:12:30;10.05;;;4.32;;
6388;SDS011;3227;42.654;23.360;2023-08-01T05:14:57;6.80;;;3.88;;
6388;SDS011;3227;42.654;23.360;2023-08-01T05:17:24;11.07;;;3.70;;
6388;SDS011;3227;42.654;23.360;2023-08-01T05:19:51;9.10;;;3.85;;
6388;SDS011;3227;42.654;23.360;2023-08-01T05:22:19;7.68;;;3.88;;
6388;SDS011;3227;42.654;23.360;2023-08-01T05:24:46;9.77;;;3.95;;
6388;SDS011;3227;42.654;23.360;2023-08-01T05:27:12;10.23;;;3.90;;
6388;SDS011;3227;42.654;23.360;2023-08-01T05:29:39;6.40;;;3.65;;
6388;SDS011;3227;42.654;23.360;2023-08-01T05:32:06;6.32;;;3.63;;
6388;SDS011;3227;42.654;23.360;2023-08-01T05:34:33;6.10;;;3.40;;
6388;SDS011;3227;42.654;23.360;2023-08-01T05:37:00;7.68;;;3.50;;
6388;SDS011;3227;42.654;23.360;2023-08-01T05:39:28;6.35;;;3.50;;
6388;SDS011;3227;42.654;23.360;2023-08-01T05:41:55;7.43;;;3.20;;
6388;SDS011;3227;42.654;23.360;2023-08-01T05:44:21;7.60;;;3.95;;
6388;SDS011;3227;42.654;23.360;2023-08-01T05:46:48;14.23;;;4.10;;
6388;SDS011;3227;42.654;23.360;2023-08-01T05:49:15;9.50;;;3.47;;
6388;SDS011;3227;42.654;23.360;2023-08-01T05:51:41;7.90;;;3.30;;
6388;SDS011;3227;42.654;23.360;2023-08-01T05:54:08;8.15;;;3.28;;
6388;SDS011;3227;42.654;23.360;2023-08-01T05:56:36;7.50;;;3.35;;
6388;SDS011;3227;42.654;23.360;2023-08-01T05:59:03;9.20;;;3.15;;
6388;SDS011;3227;42.654;23.360;2023-08-01T06:01:30;8.07;;;3.20;;
6388;SDS011;3227;42.654;23.360;2023-08-01T06:03:57;8.88;;;3.55;;
6388;SDS011;3227;42.654;23.360;2023-08-01T06:06:24;7.43;;;3.30;;
6388;SDS011;3227;42.654;23.360;2023-08-01T06:08:50;10.07;;;3.38;;
6388;SDS011;3227;42.654;23.360;2023-08-01T06:11:17;7.38;;;3.55;;
6388;SDS011;3227;42.654;23.360;2023-08-01T06:13:45;6.68;;;3.25;;
6388;SDS011;3227;42.654;23.360;2023-08-01T06:16:12;7.78;;;3.03;;
6388;SDS011;3227;42.654;23.360;2023-08-01T06:18:39;9.63;;;3.30;;
6388;SDS011;3227;42.654;23.360;2023-08-01T06:21:06;8.88;;;3.40;;
6388;SDS011;3227;42.654;23.360;2023-08-01T06:23:33;6.70;;;3.60;;
6388;SDS011;3227;42.654;23.360;2023-08-01T06:25:59;10.20;;;3.30;;
6388;SDS011;3227;42.654;23.360;2023-08-01T06:28:27;7.55;;;3.00;;
6388;SDS011;3227;42.654;23.360;2023-08-01T06:30:55;6.07;;;2.90;;
6388;SDS011;3227;42.654;23.360;2023-08-01T06:33:23;6.72;;;3.20;;
6388;SDS011;3227;42.654;23.360;2023-08-01T06:35:50;5.80;;;2.70;;
6388;SDS011;3227;42.654;23.360;2023-08-01T06:38:17;5.82;;;2.67;;
6388;SDS011;3227;42.654;23.360;2023-08-01T06:40:43;6.22;;;2.90;;
6388;SDS011;3227;42.654;23.360;2023-08-01T06:43:10;6.45;;;2.80;;
6388;SDS011;3227;42.654;23.360;2023-08-01T06:45:37;6.93;;;2.72;;
6388;SDS011;3227;42.654;23.360;2023-08-01T06:48:05;5.82;;;2.85;;
6388;SDS011;3227;42.654;23.360;2023-08-01T06:50:32;8.48;;;3.70;;
6388;SDS011;3227;42.654;23.360;2023-08-01T06:52:59;11.55;;;4.00;;
6388;SDS011;3227;42.654;23.360;2023-08-01T06:55:26;11.05;;;4.80;;
6388;SDS011;3227;42.654;23.360;2023-08-01T06:57:53;12.23;;;4.40;;
6388;SDS011;3227;42.654;23.360;2023-08-01T07:00:20;9.18;;;4.20;;
6388;SDS011;3227;42.654;23.360;2023-08-01T07:02:47;7.10;;;4.30;;
6388;SDS011;3227;42.654;23.360;2023-08-01T07:05:15;8.18;;;3.95;;
6388;SDS011;3227;42.654;23.360;2023-08-01T07:07:42;10.63;;;4.05;;
6388;SDS011;3227;42.654;23.360;2023-08-01T07:10:09;8.63;;;3.58;;
6388;SDS011;3227;42.654;23.360;2023-08-01T07:12:36;7.47;;;3.90;;
6388;SDS011;3227;42.654;23.360;2023-08-01T07:15:03;11.23;;;4.40;;
6388;SDS011;3227;42.654;23.360;2023-08-01T07:17:30;10.35;;;4.68;;
6388;SDS011;3227;42.654;23.360;2023-08-01T07:19:57;7.57;;;4.07;;
6388;SDS011;3227;42.654;23.360;2023-08-01T07:22:25;10.95;;;4.07;;
6388;SDS011;3227;42.654;23.360;2023-08-01T07:24:52;11.77;;;4.32;;
6388;SDS011;3227;42.654;23.360;2023-08-01T07:27:19;10.13;;;4.50;;
6388;SDS011;3227;42.654;23.360;2023-08-01T07:29:46;8.88;;;4.22;;
6388;SDS011;3227;42.654;23.360;2023-08-01T07:32:13;8.65;;;4.55;;
6388;SDS011;3227;42.654;23.360;2023-08-01T07:34:45;11.05;;;4.05;;
6388;SDS011;3227;42.654;23.360;2023-08-01T07:37:12;8.45;;;4.70;;
6388;SDS011;3227;42.654;23.360;2023-08-01T07:39:40;12.13;;;4.18;;
6388;SDS011;3227;42.654;23.360;2023-08-01T07:42:07;11.63;;;3.70;;
6388;SDS011;3227;42.654;23.360;2023-08-01T07:44:33;7.32;;;4.03;;
6388;SDS011;3227;42.654;23.360;2023-08-01T07:47:00;11.88;;;3.90;;
6388;SDS011;3227;42.654;23.360;2023-08-01T07:49:27;10.68;;;4.38;;
6388;SDS011;3227;42.654;23.360;2023-08-01T07:51:54;11.65;;;3.90;;
6388;SDS011;3227;42.654;23.360;2023-08-01T07:54:20;11.25;;;4.18;;
6388;SDS011;3227;42.654;23.360;2023-08-01T07:56:48;8.18;;;3.85;;
6388;SDS011;3227;42.654;23.360;2023-08-01T07:59:15;10.77;;;4.22;;
6388;SDS011;3227;42.654;23.360;2023-08-01T08:01:42;10.43;;;4.03;;
6388;SDS011;3227;42.654;23.360;2023-08-01T08:04:09;8.00;;;4.05;;
6388;SDS011;3227;42.654;23.360;2023-08-01T08:06:36;10.43;;;3.90;;
6388;SDS011;3227;42.654;23.360;2023-08-01T08:09:02;10.95;;;3.97;;
6388;SDS011;3227;42.654;23.360;2023-08-01T08:11:29;7.88;;;4.03;;
6388;SDS011;3227;42.654;23.360;2023-08-01T08:13:57;10.52;;;4.20;;
6388;SDS011;3227;42.654;23.360;2023-08-01T08:16:24;8.15;;;4.20;;
6388;SDS011;3227;42.654;23.360;2023-08-01T08:18:51;10.17;;;4.40;;
6388;SDS011;3227;42.654;23.360;2023-08-01T08:21:18;6.60;;;3.65;;
6388;SDS011;3227;42.654;23.360;2023-08-01T08:23:44;8.18;;;4.00;;
6388;SDS011;3227;42.654;23.360;2023-08-01T08:26:11;9.35;;;3.78;;
6388;SDS011;3227;42.654;23.360;2023-08-01T08:28:38;9.57;;;4.07;;
6388;SDS011;3227;42.654;23.360;2023-08-01T08:31:08;6.28;;;3.70;;
6388;SDS011;3227;42.654;23.360;2023-08-01T08:33:35;10.88;;;3.95;;
6388;SDS011;3227;42.654;23.360;2023-08-01T08:36:02;10.80;;;4.10;;
6388;SDS011;3227;42.654;23.360;2023-08-01T08:38:29;10.65;;;4.03;;
6388;SDS011;3227;42.654;23.360;2023-08-01T08:41:08;12.35;;;4.18;;
6388;SDS011;3227;42.654;23.360;2023-08-01T08:43:36;9.50;;;4.40;;
6388;SDS011;3227;42.654;23.360;2023-08-01T08:46:04;8.73;;;4.28;;
6388;SDS011;3227;42.654;23.360;2023-08-01T08:48:33;11.05;;;3.67;;
6388;SDS011;3227;42.654;23.360;2023-08-01T08:51:01;7.53;;;3.80;;
6388;SDS011;3227;42.654;23.360;2023-08-01T08:53:29;9.40;;;3.95;;
6388;SDS011;3227;42.654;23.360;2023-08-01T08:55:58;7.35;;;3.75;;
6388;SDS011;3227;42.654;23.360;2023-08-01T08:58:26;10.88;;;4.57;;
6388;SDS011;3227;42.654;23.360;2023-08-01T09:00:53;10.90;;;3.92;;
6388;SDS011;3227;42.654;23.360;2023-08-01T09:03:20;8.30;;;4.25;;
6388;SDS011;3227;42.654;23.360;2023-08-01T09:05:49;6.40;;;3.47;;
6388;SDS011;3227;42.654;23.360;2023-08-01T09:08:18;8.43;;;4.05;;
6388;SDS011;3227;42.654;23.360;2023-08-01T09:10:46;11.88;;;3.92;;
6388;SDS011;3227;42.654;23.360;2023-08-01T09:13:13;7.10;;;3.75;;
6388;SDS011;3227;42.654;23.360;2023-08-01T09:15:40;11.88;;;3.80;;
6388;SDS011;3227;42.654;23.360;2023-08-01T09:18:08;7.90;;;3.85;;
6388;SDS011;3227;42.654;23.360;2023-08-01T09:20:45;8.68;;;3.47;;
6388;SDS011;3227;42.654;23.360;2023-08-01T09:23:14;10.18;;;4.25;;
6388;SDS011;3227;42.654;23.360;2023-08-01T09:25:42;9.35;;;3.80;;
6388;SDS011;3227;42.654;23.360;2023-08-01T09:28:18;8.85;;;4.25;;
6388;SDS011;3227;42.654;23.360;2023-08-01T09:30:47;8.93;;;4.30;;
6388;SDS011;3227;42.654;23.360;2023-08-01T09:33:15;6.80;;;3.95;;
6388;SDS011;3227;42.654;23.360;2023-08-01T09:35:42;12.03;;;4.43;;
6388;SDS011;3227;42.654;23.360;2023-08-01T09:38:11;9.57;;;4.20;;
6388;SDS011;3227;42.654;23.360;2023-08-01T09:40:40;6.38;;;3.58;;
6388;SDS011;3227;42.654;23.360;2023-08-01T09:43:08;8.73;;;3.90;;
6388;SDS011;3227;42.654;23.360;2023-08-01T09:45:36;7.00;;;3.75;;
6388;SDS011;3227;42.654;23.360;2023-08-01T09:48:03;7.05;;;3.85;;
6388;SDS011;3227;42.654;23.360;2023-08-01T09:50:30;8.70;;;3.80;;
6388;SDS011;3227;42.654;23.360;2023-08-01T09:53:06;11.02;;;4.10;;
6388;SDS011;3227;42.654;23.360;2023-08-01T09:55:35;6.38;;;3.75;;
6388;SDS011;3227;42.654;23.360;2023-08-01T09:58:03;9.85;;;4.18;;
6388;SDS011;3227;42.654;23.360;2023-08-01T10:00:31;9.65;;;4.13;;
6388;SDS011;3227;42.654;23.360;2023-08-01T10:02:58;8.23;;;4.00;;
6388;SDS011;3227;42.654;23.360;2023-08-01T10:05:36;9.05;;;4.15;;
6388;SDS011;3227;42.654;23.360;2023-08-01T10:08:06;7.60;;;4.07;;
6388;SDS011;3227;42.654;23.360;2023-08-01T10:10:35;7.30;;;3.58;;
6388;SDS011;3227;42.654;23.360;2023-08-01T10:13:02;6.68;;;4.00;;
6388;SDS011;3227;42.654;23.360;2023-08-01T10:15:29;7.32;;;3.80;;
6388;SDS011;3227;42.654;23.360;2023-08-01T10:17:56;11.00;;;4.50;;
6388;SDS011;3227;42.654;23.360;2023-08-01T10:20:23;6.50;;;4.03;;
6388;SDS011;3227;42.654;23.360;2023-08-01T10:22:50;7.72;;;4.07;;
6388;SDS011;3227;42.654;23.360;2023-08-01T10:25:18;9.13;;;5.00;;
6388;SDS011;3227;42.654;23.360;2023-08-01T10:27:58;8.63;;;4.80;;
6388;SDS011;3227;42.654;23.360;2023-08-01T10:30:25;9.93;;;4.60;;
6388;SDS011;3227;42.654;23.360;2023-08-01T10:32:54;12.30;;;4.10;;
6388;SDS011;3227;42.654;23.360;2023-08-01T10:35:31;8.38;;;4.53;;
6388;SDS011;3227;42.654;23.360;2023-08-01T10:38:03;9.18;;;4.60;;
6388;SDS011;3227;42.654;23.360;2023-08-01T10:40:34;8.13;;;4.43;;
6388;SDS011;3227;42.654;23.360;2023-08-01T10:43:03;7.10;;;3.78;;
6388;SDS011;3227;42.654;23.360;2023-08-01T10:45:30;8.25;;;4.30;;
6388;SDS011;3227;42.654;23.360;2023-08-01T10:48:06;8.43;;;4.28;;
6388;SDS011;3227;42.654;23.360;2023-08-01T10:50:34;9.60;;;4.50;;
6388;SDS011;3227;42.654;23.360;2023-08-01T10:53:02;8.80;;;4.47;;
6388;SDS011;3227;42.654;23.360;2023-08-01T10:55:38;11.02;;;4.65;;
6388;SDS011;3227;42.654;23.360;2023-08-01T10:58:07;8.13;;;3.65;;
6388;SDS011;3227;42.654;23.360;2023-08-01T11:00:34;10.05;;;4.10;;
6388;SDS011;3227;42.654;23.360;2023-08-01T11:03:01;6.82;;;4.18;;
6388;SDS011;3227;42.654;23.360;2023-08-01T11:05:27;9.60;;;4.10;;
6388;SDS011;3227;42.654;23.360;2023-08-01T11:07:54;7.65;;;4.30;;
6388;SDS011;3227;42.654;23.360;2023-08-01T11:10:23;8.07;;;4.53;;
6388;SDS011;3227;42.654;23.360;2023-08-01T11:12:51;7.65;;;3.90;;
6388;SDS011;3227;42.654;23.360;2023-08-01T11:15:19;9.30;;;4.20;;
6388;SDS011;3227;42.654;23.360;2023-08-01T11:17:47;7.68;;;4.30;;
6388;SDS011;3227;42.654;23.360;2023-08-01T11:20:16;6.20;;;3.97;;
6388;SDS011;3227;42.654;23.360;2023-08-01T11:22:52;7.63;;;3.90;;
6388;SDS011;3227;42.654;23.360;2023-08-01T11:25:30;7.38;;;4.00;;
6388;SDS011;3227;42.654;23.360;2023-08-01T11:28:01;9.07;;;4.07;;
6388;SDS011;3227;42.654;23.360;2023-08-01T11:30:33;7.85;;;4.28;;
6388;SDS011;3227;42.654;23.360;2023-08-01T11:33:01;10.32;;;4.55;;
6388;SDS011;3227;42.654;23.360;2023-08-01T11:35:28;8.27;;;4.03;;
6388;SDS011;3227;42.654;23.360;2023-08-01T11:37:54;8.23;;;4.20;;
6388;SDS011;3227;42.654;23.360;2023-08-01T11:40:23;6.85;;;3.75;;
6388;SDS011;3227;42.654;23.360;2023-08-01T11:42:51;7.97;;;4.30;;
6388;SDS011;3227;42.654;23.360;2023-08-01T11:45:29;7.18;;;3.97;;
6388;SDS011;3227;42.654;23.360;2023-08-01T11:47:57;8.65;;;4.10;;
6388;SDS011;3227;42.654;23.360;2023-08-01T11:50:25;7.45;;;3.85;;
6388;SDS011;3227;42.654;23.360;2023-08-01T11:52:52;10.95;;;4.40;;
6388;SDS011;3227;42.654;23.360;2023-08-01T11:55:19;8.52;;;3.97;;
6388;SDS011;3227;42.654;23.360;2023-08-01T11:57:53;9.82;;;3.83;;
6388;SDS011;3227;42.654;23.360;2023-08-01T12:00:21;6.97;;;3.78;;
6388;SDS011;3227;42.654;23.360;2023-08-01T12:02:49;9.32;;;4.00;;
6388;SDS011;3227;42.654;23.360;2023-08-01T12:05:24;8.25;;;3.70;;
6388;SDS011;3227;42.654;23.360;2023-08-01T12:07:51;9.65;;;3.80;;
6388;SDS011;3227;42.654;23.360;2023-08-01T12:10:18;8.38;;;4.00;;
6388;SDS011;3227;42.654;23.360;2023-08-01T12:12:45;6.28;;;3.72;;
6388;SDS011;3227;42.654;23.360;2023-08-01T12:15:13;7.45;;;4.07;;
6388;SDS011;3227;42.654;23.360;2023-08-01T12:17:40;9.45;;;3.70;;
6388;SDS011;3227;42.654;23.360;2023-08-01T12:20:07;7.68;;;3.58;;
6388;SDS011;3227;42.654;23.360;2023-08-01T12:22:36;10.55;;;4.38;;
6388;SDS011;3227;42.654;23.360;2023-08-01T12:25:03;8.68;;;4.20;;
6388;SDS011;3227;42.654;23.360;2023-08-01T12:27:30;7.07;;;3.88;;
6388;SDS011;3227;42.654;23.360;2023-08-01T12:29:57;7.80;;;4.00;;
6388;SDS011;3227;42.654;23.360;2023-08-01T12:32:23;9.40;;;4.25;;
6388;SDS011;3227;42.654;23.360;2023-08-01T12:34:50;6.55;;;3.65;;
6388;SDS011;3227;42.654;23.360;2023-08-01T12:37:17;9.38;;;3.50;;
6388;SDS011;3227;42.654;23.360;2023-08-01T12:39:45;9.93;;;4.30;;
6388;SDS011;3227;42.654;23.360;2023-08-01T12:42:12;6.53;;;3.75;;
6388;SDS011;3227;42.654;23.360;2023-08-01T12:44:39;13.43;;;4.35;;
6388;SDS011;3227;42.654;23.360;2023-08-01T12:47:06;9.57;;;4.50;;
6388;SDS011;3227;42.654;23.360;2023-08-01T12:49:40;9.75;;;4.10;;
6388;SDS011;3227;42.654;23.360;2023-08-01T12:52:07;7.35;;;4.00;;
6388;SDS011;3227;42.654;23.360;2023-08-01T12:54:33;6.78;;;3.75;;
6388;SDS011;3227;42.654;23.360;2023-08-01T12:57:02;10.73;;;4.40;;
6388;SDS011;3227;42.654;23.360;2023-08-01T12:59:29;8.60;;;4.18;;
6388;SDS011;3227;42.654;23.360;2023-08-01T13:01:55;6.68;;;3.97;;
6388;SDS011;3227;42.654;23.360;2023-08-01T13:04:22;6.78;;;3.80;;
6388;SDS011;3227;42.654;23.360;2023-08-01T13:06:49;7.20;;;4.07;;
6388;SDS011;3227;42.654;23.360;2023-08-01T13:09:16;16.98;;;4.30;;
6388;SDS011;3227;42.654;23.360;2023-08-01T13:11:42;10.05;;;4.40;;
6388;SDS011;3227;42.654;23.360;2023-08-01T13:14:10;9.88;;;4.72;;
6388;SDS011;3227;42.654;23.360;2023-08-01T13:16:37;8.23;;;4.03;;
6388;SDS011;3227;42.654;23.360;2023-08-01T13:19:04;8.77;;;3.60;;
6388;SDS011;3227;42.654;23.360;2023-08-01T13:21:31;7.22;;;4.00;;
6388;SDS011;3227;42.654;23.360;2023-08-01T13:23:59;10.38;;;4.50;;
6388;SDS011;3227;42.654;23.360;2023-08-01T13:26:29;8.30;;;4.07;;
6388;SDS011;3227;42.654;23.360;2023-08-01T13:28:56;7.28;;;3.50;;
6388;SDS011;3227;42.654;23.360;2023-08-01T13:31:24;12.40;;;4.38;;
6388;SDS011;3227;42.654;23.360;2023-08-01T13:33:51;7.85;;;3.40;;
6388;SDS011;3227;42.654;23.360;2023-08-01T13:36:18;6.60;;;3.50;;
6388;SDS011;3227;42.654;23.360;2023-08-01T13:38:45;8.30;;;3.42;;
6388;SDS011;3227;42.654;23.360;2023-08-01T13:41:12;7.57;;;3.85;;
6388;SDS011;3227;42.654;23.360;2023-08-01T13:43:38;8.15;;;3.40;;
6388;SDS011;3227;42.654;23.360;2023-08-01T13:46:09;6.80;;;3.22;;
6388;SDS011;3227;42.654;23.360;2023-08-01T13:48:40;7.95;;;3.70;;
6388;SDS011;3227;42.654;23.360;2023-08-01T13:51:08;6.20;;;3.30;;
6388;SDS011;3227;42.654;23.360;2023-08-01T13:53:34;10.68;;;3.45;;
6388;SDS011;3227;42.654;23.360;2023-08-01T13:56:06;9.48;;;3.60;;
6388;SDS011;3227;42.654;23.360;2023-08-01T13:58:32;10.30;;;3.38;;
6388;SDS011;3227;42.654;23.360;2023-08-01T14:01:01;5.13;;;2.95;;
6388;SDS011;3227;42.654;23.360;2023-08-01T14:03:29;7.47;;;3.42;;
6388;SDS011;3227;42.654;23.360;2023-08-01T14:06:02;5.93;;;3.42;;
6388;SDS011;3227;42.654;23.360;2023-08-01T14:08:29;5.93;;;3.20;;
6388;SDS011;3227;42.654;23.360;2023-08-01T14:10:56;7.23;;;3.20;;
6388;SDS011;3227;42.654;23.360;2023-08-01T14:13:23;5.65;;;3.40;;
6388;SDS011;3227;42.654;23.360;2023-08-01T14:15:50;8.18;;;3.45;;
6388;SDS011;3227;42.654;23.360;2023-08-01T14:18:17;7.78;;;3.10;;
6388;SDS011;3227;42.654;23.360;2023-08-01T14:20:44;12.23;;;3.72;;
6388;SDS011;3227;42.654;23.360;2023-08-01T14:23:12;7.47;;;3.13;;
6388;SDS011;3227;42.654;23.360;2023-08-01T14:25:39;11.25;;;4.45;;
6388;SDS011;3227;42.654;23.360;2023-08-01T14:28:06;13.07;;;4.53;;
6388;SDS011;3227;42.654;23.360;2023-08-01T14:30:33;7.25;;;3.20;;
6388;SDS011;3227;42.654;23.360;2023-08-01T14:33:00;9.65;;;3.10;;
6388;SDS011;3227;42.654;23.360;2023-08-01T14:35:27;9.23;;;3.65;;
6388;SDS011;3227;42.654;23.360;2023-08-01T14:37:54;5.93;;;3.40;;
6388;SDS011;3227;42.654;23.360;2023-08-01T14:40:22;8.82;;;3.25;;
6388;SDS011;3227;42.654;23.360;2023-08-01T14:42:50;10.15;;;3.67;;
6388;SDS011;3227;42.654;23.360;2023-08-01T14:45:17;6.45;;;3.38;;
6388;SDS011;3227;42.654;23.360;2023-08-01T14:47:44;9.05;;;3.53;;
6388;SDS011;3227;42.654;23.360;2023-08-01T14:50:11;12.07;;;3.93;;
6388;SDS011;3227;42.654;23.360;2023-08-01T14:52:38;7.05;;;3.28;;
6388;SDS011;3227;42.654;23.360;2023-08-01T14:55:06;7.47;;;3.50;;
6388;SDS011;3227;42.654;23.360;2023-08-01T14:57:35;7.93;;;3.53;;
6388;SDS011;3227;42.654;23.360;2023-08-01T15:00:03;8.77;;;3.45;;